Time;durP1;ratioP1;P1;durP2;ratioP2;P2;SDS_P1;SDS_P2;PMS_P1;PMS_P2;Temp;Humidity;BMP_temperature;BMP_pressure;BME280_temperature;BME280_humidity;BME280_pressure;Samples;Min_cycle;Max_cycle;Signal;HPM_P1;HPM_P2
2022/11/20 00:00:47;;;;;;;;;8.33;7.67;;;;;-147.17;100.00;-15917.19;5064270;27;51186;-59
2022/11/20 00:03:13;;;;;;;;;9.00;9.00;;;;;-147.17;100.00;-15917.19;5060402;27;51201;-59
2022/11/20 00:05:38;;;;;;;;;10.33;8.67;;;;;-147.17;100.00;-15917.19;5064291;27;51917;-59
2022/11/20 00:08:04;;;;;;;;;9.33;8.67;;;;;-147.17;100.00;-15917.19;5059571;27;51238;-59
2022/11/20 00:10:29;;;;;;;;;10.67;10.00;;;;;-147.17;100.00;-15917.19;5058632;27;51134;-58
2022/11/20 00:12:55;;;;;;;;;10.33;10.33;;;;;-147.17;100.00;-15917.19;5060105;28;51235;-59
2022/11/20 00:15:20;;;;;;;;;8.67;8.67;;;;;-147.17;100.00;-15917.19;5059781;28;51215;-59
2022/11/20 00:17:46;;;;;;;;;9.00;7.00;;;;;-147.17;100.00;-15917.19;5060163;27;51066;-59
2022/11/20 00:20:11;;;;;;;;;7.00;7.00;;;;;-147.17;100.00;-15917.19;5058864;28;51152;-59
2022/11/20 00:22:37;;;;;;;;;9.00;9.00;;;;;-147.17;100.00;-15917.19;5058857;28;51419;-59
2022/11/20 00:25:02;;;;;;;;;8.67;8.00;;;;;-147.17;100.00;-15917.19;5067691;28;52112;-60
2022/11/20 00:27:28;;;;;;;;;8.00;7.00;;;;;-147.17;100.00;-15917.19;5068241;28;51102;-59
2022/11/20 00:29:53;;;;;;;;;9.67;8.67;;;;;-147.17;100.00;-15917.19;5067274;28;51051;-59
2022/11/20 00:32:18;;;;;;;;;9.00;8.00;;;;;-147.17;100.00;-15917.19;5070596;27;51267;-59
2022/11/20 00:34:44;;;;;;;;;4.50;3.25;;;;;-147.17;100.00;-15917.19;5068992;27;52152;-60
2022/11/20 00:37:09;;;;;;;;;8.00;7.50;;;;;-147.17;100.00;-15917.19;5068641;27;51698;-58
2022/11/20 00:39:34;;;;;;;;;9.25;8.50;;;;;-147.17;100.00;-15917.19;5069459;28;51246;-59
2022/11/20 00:42:00;;;;;;;;;7.00;7.00;;;;;-147.17;100.00;-15917.19;5059526;27;51247;-58
2022/11/20 00:44:25;;;;;;;;;7.67;7.67;;;;;-147.17;100.00;-15917.19;5066500;28;51063;-59
2022/11/20 00:46:50;;;;;;;;;13.00;11.50;;;;;-147.17;100.00;-15917.19;5063734;27;51211;-58
2022/11/20 00:49:16;;;;;;;;;5.33;4.33;;;;;-147.17;100.00;-15917.19;5063987;27;51278;-58
2022/11/20 00:51:44;;;;;;;;;9.00;7.67;;;;;-147.17;100.00;-15917.19;5071688;27;51202;-59
2022/11/20 00:54:10;;;;;;;;;10.33;8.00;;;;;-147.17;100.00;-15917.19;5069132;27;52113;-58
2022/11/20 00:56:35;;;;;;;;;7.00;5.33;;;;;-147.17;100.00;-15917.19;5071327;27;51370;-58
2022/11/20 00:59:01;;;;;;;;;13.50;12.00;;;;;-147.17;100.00;-15917.19;5058144;27;51136;-59
2022/11/20 01:01:29;;;;;;;;;9.00;8.00;;;;;-147.17;100.00;-15917.19;5071492;27;51414;-58
2022/11/20 01:03:57;;;;;;;;;10.75;9.25;;;;;-147.17;100.00;-15917.19;5060756;27;52609;-60
2022/11/20 01:06:28;;;;;;;;;7.75;7.75;;;;;-147.17;100.00;-15917.19;5068527;27;51752;-60
2022/11/20 01:08:57;;;;;;;;;8.75;8.00;;;;;-147.17;100.00;-15917.19;5040351;28;51186;-59
2022/11/20 01:11:26;;;;;;;;;7.00;6.25;;;;;-147.17;100.00;-15917.19;5069309;27;50998;-59
2022/11/20 01:13:53;;;;;;;;;10.00;9.00;;;;;-147.17;100.00;-15917.19;5058562;27;52220;-60
2022/11/20 01:16:30;;;;;;;;;6.00;5.50;;;;;-147.17;100.00;-15917.19;5063158;27;51174;-58
2022/11/20 01:18:59;;;;;;;;;6.33;6.00;;;;;-147.17;100.00;-15917.19;5056500;28;51212;-58
2022/11/20 01:21:28;;;;;;;;;4.00;3.00;;;;;-147.17;100.00;-15917.19;5062886;27;51455;-59
2022/11/20 01:23:54;;;;;;;;;7.00;7.00;;;;;-147.17;100.00;-15917.19;5063475;27;52157;-59
2022/11/20 01:26:23;;;;;;;;;7.00;7.00;;;;;-147.17;100.00;-15917.19;5060792;27;51182;-58
2022/11/20 01:28:49;;;;;;;;;9.00;8.00;;;;;-147.17;100.00;-15917.19;5059870;28;51272;-59
2022/11/20 01:31:21;;;;;;;;;7.50;7.50;;;;;-147.17;100.00;-15917.19;5058302;27;51065;-58
2022/11/20 01:33:48;;;;;;;;;6.25;5.75;;;;;-147.17;100.00;-15917.19;5061619;28;51923;-58
2022/11/20 01:36:15;;;;;;;;;5.25;5.25;;;;;-147.17;100.00;-15917.19;5063122;28;51235;-58
2022/11/20 01:38:41;;;;;;;;;6.00;6.00;;;;;-147.17;100.00;-15917.19;5062924;27;51159;-58
2022/11/20 01:41:07;;;;;;;;;6.00;4.00;;;;;-147.17;100.00;-15917.19;5068738;27;51112;-58
2022/11/20 01:43:33;;;;;;;;;9.75;7.50;;;;;-147.17;100.00;-15917.19;5083250;27;52381;-59
2022/11/20 01:45:59;;;;;;;;;5.00;5.00;;;;;-147.17;100.00;-15917.19;5062884;27;51072;-59
2022/11/20 01:48:30;;;;;;;;;9.25;8.75;;;;;-147.17;100.00;-15917.19;5072718;27;51248;-58
2022/11/20 01:50:57;;;;;;;;;6.00;5.00;;;;;-147.17;100.00;-15917.19;5061782;27;51154;-57
2022/11/20 01:53:27;;;;;;;;;9.25;9.25;;;;;-147.17;100.00;-15917.19;5073278;27;51864;-58
2022/11/20 01:55:56;;;;;;;;;7.50;7.50;;;;;-147.17;100.00;-15917.19;5064246;27;51093;-58
2022/11/20 01:58:27;;;;;;;;;4.00;3.50;;;;;-147.17;100.00;-15917.19;5062240;27;51689;-59
2022/11/20 02:00:53;;;;;;;;;5.50;5.50;;;;;-147.17;100.00;-15917.19;5068151;27;52574;-59
2022/11/20 02:03:19;;;;;;;;;4.50;4.50;;;;;-147.17;100.00;-15917.19;5074195;27;58721;-59
2022/11/20 02:05:55;;;;;;;;;21.00;17.75;;;;;-147.17;100.00;-15917.19;5061391;27;50947;-59
2022/11/20 02:08:22;;;;;;;;;6.50;5.50;;;;;-147.17;100.00;-15917.19;5064108;28;50997;-58
2022/11/20 02:10:48;;;;;;;;;4.50;4.50;;;;;-147.17;100.00;-15917.19;5070025;27;51222;-58
2022/11/20 02:15:58;;;;;;;;;6.00;6.00;;;;;-147.17;100.00;-15917.19;5068027;28;51206;-58
2022/11/20 02:18:24;;;;;;;;;7.25;7.00;;;;;-147.17;100.00;-15917.19;5069542;27;50993;-58
2022/11/20 02:20:55;;;;;;;;;11.00;9.00;;;;;-147.17;100.00;-15917.19;5068218;27;51096;-58
2022/11/20 02:23:32;;;;;;;;;8.00;8.00;;;;;-147.17;100.00;-15917.19;5062752;27;51860;-58
2022/11/20 02:26:00;;;;;;;;;5.00;5.00;;;;;-147.17;100.00;-15917.19;5062586;28;51108;-59
2022/11/20 02:28:26;;;;;;;;;6.50;6.50;;;;;-147.17;100.00;-15917.19;5067866;27;51176;-58
2022/11/20 02:30:51;;;;;;;;;7.00;7.00;;;;;-147.17;100.00;-15917.19;5066881;28;51482;-58
2022/11/20 02:33:16;;;;;;;;;7.00;7.00;;;;;-147.17;100.00;-15917.19;5062985;27;53401;-57
2022/11/20 02:35:44;;;;;;;;;6.75;4.50;;;;;-147.17;100.00;-15917.19;5069078;28;51164;-63
2022/11/20 02:38:09;;;;;;;;;3.75;3.25;;;;;-147.17;100.00;-15917.19;5069839;27;51242;-57
2022/11/20 02:40:35;;;;;;;;;3.50;3.50;;;;;-147.17;100.00;-15917.19;5066743;27;51812;-58
2022/11/20 02:43:00;;;;;;;;;19.25;19.25;;;;;-147.17;100.00;-15917.19;5063467;28;51602;-58
2022/11/20 02:45:25;;;;;;;;;4.00;3.67;;;;;-147.17;100.00;-15917.19;5058916;27;51543;-58
2022/11/20 02:47:51;;;;;;;;;2.00;2.00;;;;;-147.17;100.00;-15917.19;5067163;28;51388;-58
2022/11/20 02:50:17;;;;;;;;;3.00;3.00;;;;;-147.17;100.00;-15917.19;5058084;27;51214;-59
2022/11/20 02:52:42;;;;;;;;;5.75;5.75;;;;;-147.17;100.00;-15917.19;5057884;28;53113;-58
2022/11/20 02:55:08;;;;;;;;;6.00;5.50;;;;;-147.17;100.00;-15917.19;5066694;28;51033;-59
2022/11/20 02:57:33;;;;;;;;;5.00;4.00;;;;;-147.17;100.00;-15917.19;5058759;27;51976;-59
2022/11/20 02:59:59;;;;;;;;;4.00;4.00;;;;;-147.17;100.00;-15917.19;5066256;28;51063;-58
2022/11/20 03:02:24;;;;;;;;;7.00;6.75;;;;;-147.17;100.00;-15917.19;5063650;27;51120;-59
2022/11/20 03:04:49;;;;;;;;;7.25;7.00;;;;;-147.17;100.00;-15917.19;5069222;27;53766;-57
2022/11/20 03:07:15;;;;;;;;;2.00;2.00;;;;;-147.17;100.00;-15917.19;5066839;28;51158;-58
2022/11/20 03:09:40;;;;;;;;;4.00;4.00;;;;;-147.17;100.00;-15917.19;5066891;27;51071;-58
2022/11/20 03:12:05;;;;;;;;;4.00;3.75;;;;;-147.17;100.00;-15917.19;5054930;28;51808;-58
2022/11/20 03:14:31;;;;;;;;;5.00;4.00;;;;;-147.17;100.00;-15917.19;5052905;28;51139;-58
2022/11/20 03:16:56;;;;;;;;;4.00;4.00;;;;;-147.17;100.00;-15917.19;5059671;28;51240;-58
2022/11/20 03:19:22;;;;;;;;;2.75;2.75;;;;;-147.17;100.00;-15917.19;5062232;27;51256;-58
2022/11/20 03:21:47;;;;;;;;;2.25;2.25;;;;;-147.17;100.00;-15917.19;5065528;27;51188;-60
2022/11/20 03:24:13;;;;;;;;;4.50;4.00;;;;;-147.17;100.00;-15917.19;5061193;27;51135;-59
2022/11/20 03:26:40;;;;;;;;;3.75;3.75;;;;;-147.17;100.00;-15917.19;5064519;27;51049;-59
2022/11/20 03:29:05;;;;;;;;;3.75;2.75;;;;;-147.17;100.00;-15917.19;5065604;27;51267;-59
2022/11/20 03:31:34;;;;;;;;;3.25;3.25;;;;;-147.17;100.00;-15917.19;5065635;27;51056;-59
2022/11/20 03:34:00;;;;;;;;;4.50;3.75;;;;;-147.17;100.00;-15917.19;5065560;27;51248;-59
2022/11/20 03:36:27;;;;;;;;;2.00;2.00;;;;;-147.17;100.00;-15917.19;5071218;27;51054;-58
2022/11/20 03:38:54;;;;;;;;;4.25;3.75;;;;;-147.17;100.00;-15917.19;5070990;28;51445;-58
2022/11/20 03:41:22;;;;;;;;;2.75;2.00;;;;;-147.17;100.00;-15917.19;5065438;27;51035;-58
2022/11/20 03:43:54;;;;;;;;;3.25;3.25;;;;;-147.17;100.00;-15917.19;5066596;27;51106;-58
2022/11/20 03:46:20;;;;;;;;;3.00;2.25;;;;;-147.17;100.00;-15917.19;5064820;27;51219;-58
2022/11/20 03:48:45;;;;;;;;;3.00;2.75;;;;;-147.17;100.00;-15917.19;5061912;28;50887;-59
2022/11/20 03:51:12;;;;;;;;;2.00;2.00;;;;;-147.17;100.00;-15917.19;5064601;27;52960;-59
2022/11/20 03:53:38;;;;;;;;;2.00;2.00;;;;;-147.17;100.00;-15917.19;5064129;27;51032;-59
2022/11/20 03:56:04;;;;;;;;;1.00;1.00;;;;;-147.17;100.00;-15917.19;5066961;27;51105;-58
2022/11/20 03:58:30;;;;;;;;;1.75;1.75;;;;;-147.17;100.00;-15917.19;5061961;27;51134;-59
2022/11/20 04:00:55;;;;;;;;;2.75;2.25;;;;;-147.17;100.00;-15917.19;5067489;27;52030;-58
2022/11/20 04:03:21;;;;;;;;;2.00;2.00;;;;;-147.17;100.00;-15917.19;5071413;27;51135;-58
2022/11/20 04:05:46;;;;;;;;;3.50;3.25;;;;;-147.17;100.00;-15917.19;5060217;27;51235;-58
2022/11/20 04:08:11;;;;;;;;;2.00;1.75;;;;;-147.17;100.00;-15917.19;5067498;27;51227;-57
2022/11/20 04:10:37;;;;;;;;;2.50;1.75;;;;;-147.17;100.00;-15917.19;5059417;27;51926;-58
2022/11/20 04:13:02;;;;;;;;;2.50;1.00;;;;;-147.17;100.00;-15917.19;5066627;27;51647;-59
2022/11/20 04:15:28;;;;;;;;;2.00;1.75;;;;;-147.17;100.00;-15917.19;5067253;27;51023;-58
2022/11/20 04:17:54;;;;;;;;;2.50;2.00;;;;;-147.17;100.00;-15917.19;5067835;27;51350;-58
2022/11/20 04:20:19;;;;;;;;;2.25;2.25;;;;;-147.17;100.00;-15917.19;5067298;27;52018;-58
2022/11/20 04:22:44;;;;;;;;;2.00;2.00;;;;;-147.17;100.00;-15917.19;5068334;27;51151;-59
2022/11/20 04:25:10;;;;;;;;;1.75;1.75;;;;;-147.17;100.00;-15917.19;5061780;27;50938;-57
2022/11/20 04:27:35;;;;;;;;;1.75;1.75;;;;;-147.17;100.00;-15917.19;5060515;28;51299;-59
2022/11/20 04:30:00;;;;;;;;;2.50;2.00;;;;;-147.17;100.00;-15917.19;5053074;28;51114;-58
2022/11/20 04:32:26;;;;;;;;;1.50;1.50;;;;;-147.17;100.00;-15917.19;5065984;28;56117;-60
2022/11/20 04:34:51;;;;;;;;;2.00;2.00;;;;;-147.17;100.00;-15917.19;5064633;28;51367;-59
2022/11/20 04:37:16;;;;;;;;;2.00;2.00;;;;;-147.17;100.00;-15917.19;5066757;27;51493;-58
2022/11/20 04:39:42;;;;;;;;;1.50;1.50;;;;;-147.17;100.00;-15917.19;5070246;28;51929;-59
2022/11/20 04:42:28;;;;;;;;;3.00;2.75;;;;;-147.17;100.00;-15917.19;5068089;28;51225;-58
2022/11/20 04:44:54;;;;;;;;;3.00;2.00;;;;;-147.17;100.00;-15917.19;5069667;28;51097;-58
2022/11/20 04:47:19;;;;;;;;;4.00;3.00;;;;;-147.17;100.00;-15917.19;5053996;28;51701;-58
2022/11/20 04:49:44;;;;;;;;;3.00;2.00;;;;;-147.17;100.00;-15917.19;5057638;28;52015;-60
2022/11/20 04:52:10;;;;;;;;;1.67;1.67;;;;;-147.17;100.00;-15917.19;5062374;28;51125;-59
2022/11/20 04:54:35;;;;;;;;;4.25;3.00;;;;;-147.17;100.00;-15917.19;5067978;27;51076;-59
2022/11/20 04:57:00;;;;;;;;;3.00;2.00;;;;;-147.17;100.00;-15917.19;5069696;28;51198;-57
2022/11/20 04:59:26;;;;;;;;;2.67;2.00;;;;;-147.17;100.00;-15917.19;5062490;28;51777;-60
2022/11/20 05:01:51;;;;;;;;;2.00;2.00;;;;;-147.17;100.00;-15917.19;5070229;27;51013;-59
2022/11/20 05:04:16;;;;;;;;;1.00;1.00;;;;;-147.17;100.00;-15917.19;5064332;27;50978;-59
2022/11/20 05:06:42;;;;;;;;;1.00;1.00;;;;;-147.17;100.00;-15917.19;5059164;28;51737;-59
2022/11/20 05:09:08;;;;;;;;;2.00;2.00;;;;;-147.17;100.00;-15917.19;5068973;28;51731;-59
2022/11/20 05:11:33;;;;;;;;;1.00;1.00;;;;;-147.17;100.00;-15917.19;5055580;27;50997;-59
2022/11/20 05:13:59;;;;;;;;;1.00;1.00;;;;;-147.17;100.00;-15917.19;5067614;28;51220;-59
2022/11/20 05:16:25;;;;;;;;;2.00;2.00;;;;;-147.17;100.00;-15917.19;5064133;28;51139;-57
2022/11/20 05:18:54;;;;;;;;;3.00;3.00;;;;;-147.17;100.00;-15917.19;5063006;28;51049;-60
2022/11/20 05:21:19;;;;;;;;;2.00;2.00;;;;;-147.17;100.00;-15917.19;5054225;27;51019;-58
2022/11/20 05:23:46;;;;;;;;;2.00;2.00;;;;;-147.17;100.00;-15917.19;5071634;27;51152;-58
2022/11/20 05:26:14;;;;;;;;;2.00;2.00;;;;;-147.17;100.00;-15917.19;5070585;27;51102;-58
2022/11/20 05:28:40;;;;;;;;;1.00;1.00;;;;;-147.17;100.00;-15917.19;5051990;28;51121;-58
2022/11/20 05:31:12;;;;;;;;;4.00;3.00;;;;;-147.17;100.00;-15917.19;5053416;28;50868;-59
2022/11/20 05:33:40;;;;;;;;;2.75;2.75;;;;;-147.17;100.00;-15917.19;5067866;28;51139;-59
2022/11/20 05:36:06;;;;;;;;;6.00;6.00;;;;;-147.17;100.00;-15917.19;5072044;27;51017;-58
2022/11/20 05:38:32;;;;;;;;;7.00;3.00;;;;;-147.17;100.00;-15917.19;5054814;28;53089;-58
2022/11/20 05:41:24;;;;;;;;;3.00;3.00;;;;;-147.17;100.00;-15917.19;5055543;28;50999;-59
2022/11/20 05:43:50;;;;;;;;;3.75;3.00;;;;;-147.17;100.00;-15917.19;5065478;28;51322;-59
2022/11/20 05:46:18;;;;;;;;;3.00;3.00;;;;;-147.17;100.00;-15917.19;5066009;28;51287;-60
2022/11/20 05:48:44;;;;;;;;;2.75;2.75;;;;;-147.17;100.00;-15917.19;5056835;28;51879;-60
2022/11/20 05:51:12;;;;;;;;;2.00;2.00;;;;;-147.17;100.00;-15917.19;5052142;28;51059;-59
2022/11/20 05:53:38;;;;;;;;;3.25;3.25;;;;;-147.17;100.00;-15917.19;5059124;28;51155;-60
2022/11/20 05:56:12;;;;;;;;;2.67;2.00;;;;;-147.17;100.00;-15917.19;5063478;28;51385;-58
2022/11/20 05:58:38;;;;;;;;;3.33;3.00;;;;;-147.17;100.00;-15917.19;5067351;28;51740;-58
2022/11/20 06:01:11;;;;;;;;;3.00;3.00;;;;;-147.17;100.00;-15917.19;5069143;27;51295;-58
2022/11/20 06:03:37;;;;;;;;;4.00;3.00;;;;;-147.17;100.00;-15917.19;5065411;28;51268;-58
2022/11/20 06:06:04;;;;;;;;;6.00;4.00;;;;;-147.17;100.00;-15917.19;5057673;28;51279;-59
2022/11/20 06:08:30;;;;;;;;;6.00;6.00;;;;;-147.17;100.00;-15917.19;5069638;28;52324;-59
2022/11/20 06:10:56;;;;;;;;;6.75;5.50;;;;;-147.17;100.00;-15917.19;5061419;27;51318;-60
2022/11/20 06:13:21;;;;;;;;;3.50;3.50;;;;;-147.17;100.00;-15917.19;5064280;28;51121;-59
2022/11/20 06:15:53;;;;;;;;;3.00;3.00;;;;;-147.17;100.00;-15917.19;5061646;28;51342;-60
2022/11/20 06:18:19;;;;;;;;;7.50;6.25;;;;;-147.17;100.00;-15917.19;5065180;28;51869;-59
2022/11/20 06:20:45;;;;;;;;;5.50;4.00;;;;;-147.17;100.00;-15917.19;5062460;27;51004;-60
2022/11/20 06:23:10;;;;;;;;;4.67;4.67;;;;;-147.17;100.00;-15917.19;5056586;28;51139;-59
2022/11/20 06:25:40;;;;;;;;;4.00;4.00;;;;;-147.17;100.00;-15917.19;5064466;28;51350;-60
2022/11/20 06:28:06;;;;;;;;;4.33;4.33;;;;;-147.17;100.00;-15917.19;5054741;28;51198;-58
2022/11/20 06:30:32;;;;;;;;;7.50;6.00;;;;;-147.17;100.00;-15917.19;5063879;28;50942;-58
2022/11/20 06:32:57;;;;;;;;;4.50;4.50;;;;;-147.17;100.00;-15917.19;5057141;27;50865;-59
2022/11/20 06:35:22;;;;;;;;;5.00;5.00;;;;;-147.17;100.00;-15917.19;5067960;28;51230;-58
2022/11/20 06:37:48;;;;;;;;;9.00;7.00;;;;;-147.17;100.00;-15917.19;5055356;28;51999;-59
2022/11/20 06:40:13;;;;;;;;;6.50;6.50;;;;;-147.17;100.00;-15917.19;5065905;28;50907;-58
2022/11/20 06:42:38;;;;;;;;;9.75;7.25;;;;;-147.17;100.00;-15917.19;5064690;27;51152;-59
2022/11/20 06:45:04;;;;;;;;;6.00;6.00;;;;;-147.17;100.00;-15917.19;5062037;27;51342;-59
2022/11/20 06:47:29;;;;;;;;;7.75;6.00;;;;;-147.17;100.00;-15917.19;5072940;27;53392;-59
2022/11/20 06:49:55;;;;;;;;;7.00;6.75;;;;;-147.17;100.00;-15917.19;5060256;28;51190;-59
2022/11/20 06:52:20;;;;;;;;;4.50;4.50;;;;;-147.17;100.00;-15917.19;5055870;28;51107;-58
2022/11/20 06:54:46;;;;;;;;;7.00;6.00;;;;;-147.17;100.00;-15917.19;5064397;27;50908;-58
2022/11/20 06:57:11;;;;;;;;;7.50;6.75;;;;;-147.17;100.00;-15917.19;5071169;27;51900;-58
2022/11/20 06:59:37;;;;;;;;;12.00;11.25;;;;;-147.17;100.00;-15917.19;5062917;27;51132;-59
2022/11/20 07:02:05;;;;;;;;;8.00;7.25;;;;;-147.17;100.00;-15917.19;5066883;27;51275;-60
2022/11/20 07:04:30;;;;;;;;;10.00;6.50;;;;;-147.17;100.00;-15917.19;5057378;28;51258;-58
2022/11/20 07:06:55;;;;;;;;;7.00;6.50;;;;;-147.17;100.00;-15917.19;5053647;28;65133;-60
2022/11/20 07:09:21;;;;;;;;;7.75;7.75;;;;;-147.17;100.00;-15917.19;5065737;27;53780;-59
2022/11/20 07:11:46;;;;;;;;;6.25;6.25;;;;;-147.17;100.00;-15917.19;5064196;28;50923;-60
2022/11/20 07:14:11;;;;;;;;;7.75;7.50;;;;;-147.17;100.00;-15917.19;5056653;28;51419;-59
2022/11/20 07:16:37;;;;;;;;;7.75;7.50;;;;;-147.17;100.00;-15917.19;5061578;28;51856;-58
2022/11/20 07:19:02;;;;;;;;;11.25;8.50;;;;;-147.17;100.00;-15917.19;5064977;28;51156;-59
2022/11/20 07:21:27;;;;;;;;;11.00;7.00;;;;;-147.17;100.00;-15917.19;5055058;28;50959;-60
2022/11/20 07:23:53;;;;;;;;;11.50;9.00;;;;;-147.17;100.00;-15917.19;5057960;27;51065;-59
2022/11/20 07:26:19;;;;;;;;;8.50;8.50;;;;;-147.17;100.00;-15917.19;5054452;28;52037;-59
2022/11/20 07:28:45;;;;;;;;;12.50;11.00;;;;;-147.17;100.00;-15917.19;5062962;28;51146;-57
2022/11/20 07:31:11;;;;;;;;;7.50;7.00;;;;;-147.17;100.00;-15917.19;5070187;27;51115;-59
2022/11/20 07:33:37;;;;;;;;;8.75;8.00;;;;;-147.17;100.00;-15917.19;5061285;27;51510;-59
2022/11/20 07:36:02;;;;;;;;;6.75;6.00;;;;;-147.17;100.00;-15917.19;5064296;28;51246;-59
2022/11/20 07:38:28;;;;;;;;;9.50;8.00;;;;;-147.17;100.00;-15917.19;5053142;28;51200;-59
2022/11/20 07:40:55;;;;;;;;;8.50;8.50;;;;;-147.17;100.00;-15917.19;5058375;28;52274;-57
2022/11/20 07:43:21;;;;;;;;;6.00;6.00;;;;;-147.17;100.00;-15917.19;5066183;28;51155;-58
2022/11/20 07:45:46;;;;;;;;;10.50;9.00;;;;;-147.17;100.00;-15917.19;5054977;27;51133;-59
2022/11/20 07:48:11;;;;;;;;;8.00;8.00;;;;;-147.17;100.00;-15917.19;5065950;28;51362;-59
2022/11/20 07:50:36;;;;;;;;;9.50;8.00;;;;;-147.17;100.00;-15917.19;5054049;27;55134;-59
2022/11/20 07:53:04;;;;;;;;;11.00;8.50;;;;;-147.17;100.00;-15917.19;5061895;28;51331;-60
2022/11/20 07:55:30;;;;;;;;;9.75;8.25;;;;;-147.17;100.00;-15917.19;5060294;28;52729;-58
2022/11/20 07:57:56;;;;;;;;;9.25;8.00;;;;;-147.17;100.00;-15917.19;5054148;28;51141;-58
2022/11/20 08:00:22;;;;;;;;;8.50;8.50;;;;;-147.17;100.00;-15917.19;5058500;28;51731;-58
2022/11/20 08:02:47;;;;;;;;;8.00;8.00;;;;;-147.17;100.00;-15917.19;5063322;28;51073;-61
2022/11/20 08:05:13;;;;;;;;;7.75;7.75;;;;;-147.17;100.00;-15917.19;5057994;28;51670;-58
2022/11/20 08:07:40;;;;;;;;;7.00;7.00;;;;;-147.17;100.00;-15917.19;5052436;28;51085;-58
2022/11/20 08:10:07;;;;;;;;;8.50;8.00;;;;;-147.17;100.00;-15917.19;5063614;28;51255;-61
2022/11/20 08:15:16;;;;;;;;;7.25;7.00;;;;;-147.17;100.00;-15917.19;5062263;28;51125;-60
2022/11/20 08:17:41;;;;;;;;;8.00;7.50;;;;;-147.17;100.00;-15917.19;5062543;28;51165;-60
2022/11/20 08:20:07;;;;;;;;;8.00;7.25;;;;;-147.17;100.00;-15917.19;5055832;28;52083;-59
2022/11/20 08:22:32;;;;;;;;;8.00;8.00;;;;;-147.17;100.00;-15917.19;5066189;28;51302;-59
2022/11/20 08:24:58;;;;;;;;;10.50;10.50;;;;;-147.17;100.00;-15917.19;5065402;27;51712;-60
2022/11/20 08:27:23;;;;;;;;;8.75;8.00;;;;;-147.17;100.00;-15917.19;5064194;28;51039;-59
2022/11/20 08:29:48;;;;;;;;;8.00;7.25;;;;;-147.17;100.00;-15917.19;5065482;28;51111;-60
2022/11/20 08:32:14;;;;;;;;;8.00;6.00;;;;;-147.17;100.00;-15917.19;5063729;28;51350;-63
2022/11/20 08:34:39;;;;;;;;;8.50;8.50;;;;;-147.17;100.00;-15917.19;5064011;28;51071;-59
2022/11/20 08:37:04;;;;;;;;;8.25;8.00;;;;;-147.17;100.00;-15917.19;5064653;27;51096;-59
2022/11/20 08:39:30;;;;;;;;;9.75;9.00;;;;;-147.17;100.00;-15917.19;5064438;28;51132;-59
2022/11/20 08:41:55;;;;;;;;;5.25;5.00;;;;;-147.17;100.00;-15917.19;5059783;27;51441;-59
2022/11/20 08:44:20;;;;;;;;;8.50;8.50;;;;;-147.17;100.00;-15917.19;5063682;27;51124;-60
2022/11/20 08:46:46;;;;;;;;;10.50;10.50;;;;;-147.17;100.00;-15917.19;5064542;27;51123;-60
2022/11/20 08:49:13;;;;;;;;;12.25;11.75;;;;;-147.17;100.00;-15917.19;5066283;28;51064;-60
2022/11/20 08:51:39;;;;;;;;;10.25;9.25;;;;;-147.17;100.00;-15917.19;5051021;28;51307;-59
2022/11/20 08:54:06;;;;;;;;;9.25;8.25;;;;;-147.17;100.00;-15917.19;5056243;27;52141;-60
2022/11/20 08:56:32;;;;;;;;;9.00;9.00;;;;;-147.17;100.00;-15917.19;5055590;28;51206;-60
2022/11/20 08:58:59;;;;;;;;;12.75;10.50;;;;;-147.17;100.00;-15917.19;5060728;28;51187;-60
2022/11/20 09:01:25;;;;;;;;;8.25;8.25;;;;;-147.17;100.00;-15917.19;5067092;27;51340;-59
2022/11/20 09:03:51;;;;;;;;;11.75;11.50;;;;;-147.17;100.00;-15917.19;5067011;28;51176;-61
2022/11/20 09:06:17;;;;;;;;;9.00;9.00;;;;;-147.17;100.00;-15917.19;5058635;28;51431;-60
2022/11/20 09:08:42;;;;;;;;;11.50;9.50;;;;;-147.17;100.00;-15917.19;5065681;28;51335;-60
2022/11/20 09:11:08;;;;;;;;;12.00;9.00;;;;;-147.17;100.00;-15917.19;5063580;27;51357;-59
2022/11/20 09:13:35;;;;;;;;;9.00;9.00;;;;;-147.17;100.00;-15917.19;5063281;28;51596;-60
2022/11/20 09:16:04;;;;;;;;;8.75;8.00;;;;;-147.17;100.00;-15917.19;5060429;28;51207;-60
2022/11/20 09:18:32;;;;;;;;;9.75;9.75;;;;;-147.17;100.00;-15917.19;5060589;27;51054;-61
2022/11/20 09:20:58;;;;;;;;;6.75;4.00;;;;;-147.17;100.00;-15917.19;5066303;28;51314;-59
2022/11/20 09:23:24;;;;;;;;;9.50;9.00;;;;;-147.17;100.00;-15917.19;5063936;28;51622;-59
2022/11/20 09:25:50;;;;;;;;;10.50;9.50;;;;;-147.17;100.00;-15917.19;5059013;28;50999;-59
2022/11/20 09:28:17;;;;;;;;;13.50;13.00;;;;;-147.17;100.00;-15917.19;5063631;28;51339;-58
2022/11/20 09:30:42;;;;;;;;;11.75;11.75;;;;;-147.17;100.00;-15917.19;5055677;28;51163;-60
2022/11/20 09:33:07;;;;;;;;;14.75;13.25;;;;;-147.17;100.00;-15917.19;5062906;27;58746;-60
2022/11/20 09:35:33;;;;;;;;;10.50;10.50;;;;;-147.17;100.00;-15917.19;5063891;27;51128;-60
2022/11/20 09:38:05;;;;;;;;;9.75;9.00;;;;;-147.17;100.00;-15917.19;5062667;28;51061;-59
2022/11/20 09:40:31;;;;;;;;;13.25;13.25;;;;;-147.17;100.00;-15917.19;5069148;27;51294;-58
2022/11/20 09:43:37;;;;;;;;;15.75;15.00;;;;;-147.17;100.00;-15917.19;5063059;27;51227;-60
2022/11/20 09:46:07;;;;;;;;;16.50;15.25;;;;;-147.17;100.00;-15917.19;5056536;28;51742;-59
2022/11/20 09:48:51;;;;;;;;;11.25;9.50;;;;;-147.17;100.00;-15917.19;5068723;28;51140;-59
2022/11/20 09:51:27;;;;;;;;;11.75;11.75;;;;;-147.17;100.00;-15917.19;5066688;28;51037;-58
2022/11/20 09:54:19;;;;;;;;;16.75;14.00;;;;;-147.17;100.00;-15917.19;5059388;28;52099;-59
2022/11/20 09:56:53;;;;;;;;;11.75;11.50;;;;;-147.17;100.00;-15917.19;5063682;28;51368;-59
2022/11/20 09:59:37;;;;;;;;;13.25;12.75;;;;;-147.17;100.00;-15917.19;5069353;28;52110;-60
2022/11/20 10:02:17;;;;;;;;;14.25;13.00;;;;;-147.17;100.00;-15917.19;5061774;28;51558;-59
2022/11/20 10:04:51;;;;;;;;;12.00;12.00;;;;;-147.17;100.00;-15917.19;5056490;28;51884;-59
2022/11/20 10:07:29;;;;;;;;;12.75;12.75;;;;;-147.17;100.00;-15917.19;5058926;28;51102;-61
2022/11/20 10:09:56;;;;;;;;;11.75;10.25;;;;;-147.17;100.00;-15917.19;5061498;28;51261;-60
2022/11/20 10:12:34;;;;;;;;;13.50;13.00;;;;;-147.17;100.00;-15917.19;5055661;27;51187;-59
2022/11/20 10:15:18;;;;;;;;;10.75;10.50;;;;;-147.17;100.00;-15917.19;5068932;28;52000;-60
2022/11/20 10:18:08;;;;;;;;;10.00;10.00;;;;;-147.17;100.00;-15917.19;5065971;27;51156;-59
2022/11/20 10:20:53;;;;;;;;;8.75;8.75;;;;;-147.17;100.00;-15917.19;5072908;28;51049;-59
2022/11/20 10:23:24;;;;;;;;;14.50;12.50;;;;;-147.17;100.00;-15917.19;5046017;27;51081;-61
2022/11/20 10:26:03;;;;;;;;;10.25;10.25;;;;;-147.17;100.00;-15917.19;5061335;27;52206;-60
2022/11/20 10:28:56;;;;;;;;;11.75;11.75;;;;;-147.17;100.00;-15917.19;5065120;28;50981;-59
2022/11/20 10:31:34;;;;;;;;;12.00;11.00;;;;;-147.17;100.00;-15917.19;5073780;27;51109;-59
2022/11/20 10:34:21;;;;;;;;;14.75;13.75;;;;;-147.17;100.00;-15917.19;5075068;28;50993;-58
2022/11/20 10:36:55;;;;;;;;;10.25;10.00;;;;;-147.17;100.00;-15917.19;5072459;28;51857;-59
2022/11/20 10:39:25;;;;;;;;;16.00;13.75;;;;;-147.17;100.00;-15917.19;5062544;27;51029;-59
2022/11/20 10:41:53;;;;;;;;;15.75;13.00;;;;;-147.17;100.00;-15917.19;5070246;27;51069;-60
2022/11/20 10:47:17;;;;;;;;;10.00;10.00;;;;;-147.17;100.00;-15917.19;5068702;28;51045;-61
2022/11/20 10:49:50;;;;;;;;;8.75;8.75;;;;;-147.17;100.00;-15917.19;5061333;28;51214;-61
2022/11/20 10:52:19;;;;;;;;;13.00;11.50;;;;;-147.17;100.00;-15917.19;5059691;28;50989;-59
2022/11/20 10:54:54;;;;;;;;;9.75;9.50;;;;;-147.17;100.00;-15917.19;5054075;28;50931;-60
2022/11/20 10:57:41;;;;;;;;;7.75;7.75;;;;;-147.17;100.00;-15917.19;5057331;28;51281;-59
2022/11/20 11:00:10;;;;;;;;;12.25;10.00;;;;;-147.17;100.00;-15917.19;5057883;27;51059;-58
2022/11/20 11:02:50;;;;;;;;;10.00;9.25;;;;;-147.17;100.00;-15917.19;5061618;27;51280;-57
2022/11/20 11:05:44;;;;;;;;;9.75;8.00;;;;;-147.17;100.00;-15917.19;5059157;28;51315;-58
2022/11/20 11:08:16;;;;;;;;;7.75;7.75;;;;;-147.17;100.00;-15917.19;5059380;28;51286;-59
2022/11/20 11:10:46;;;;;;;;;6.00;6.00;;;;;-147.17;100.00;-15917.19;5062779;28;51066;-58